Time;durP1;ratioP1;P1;durP2;ratioP2;P2;SDS_P1;SDS_P2;PMS_P1;PMS_P2;Temp;Humidity;BMP_temperature;BMP_pressure;BME280_temperature;BME280_humidity;BME280_pressure;Samples;Min_cycle;Max_cycle;Signal;HPM_P1;HPM_P2
2022/04/27 00:01:41;;;;;;;3.70;1.80;;;;;;;14.10;100.00;94424.72;5134689;27;20571;-60
2022/04/27 00:04:06;;;;;;;3.85;1.92;;;;;;;13.93;100.00;94421.34;5134964;27;20286;-58
2022/04/27 00:06:32;;;;;;;1.83;1.42;;;;;;;13.70;100.00;94409.25;5134603;27;20199;-61
2022/04/27 00:08:58;;;;;;;5.88;1.90;;;;;;;13.84;100.00;94426.56;5134960;27;20175;-61
2022/04/27 00:11:23;;;;;;;2.95;1.25;;;;;;;13.81;100.00;94421.75;5134701;27;20644;-60
2022/04/27 00:13:49;;;;;;;3.80;1.83;;;;;;;13.59;100.00;94415.47;5134679;27;20183;-60
2022/04/27 00:16:14;;;;;;;4.03;2.10;;;;;;;13.57;100.00;94414.81;5134592;27;20176;-60
2022/04/27 00:18:40;;;;;;;2.95;1.63;;;;;;;13.40;100.00;94418.25;5135407;27;20197;-63
2022/04/27 00:21:05;;;;;;;2.13;1.63;;;;;;;13.19;100.00;94416.06;5116023;27;20171;-61
2022/04/27 00:23:32;;;;;;;4.53;1.90;;;;;;;13.32;100.00;94413.91;5116351;27;20240;-62
2022/04/27 00:25:58;;;;;;;5.10;1.97;;;;;;;13.38;100.00;94415.84;5134546;27;20182;-61
2022/04/27 00:28:24;;;;;;;2.23;1.50;;;;;;;13.51;100.00;94418.00;5134783;27;20579;-61
2022/04/27 00:30:49;;;;;;;3.93;1.63;;;;;;;13.38;100.00;94415.84;5134686;27;20210;-61
2022/04/27 00:33:15;;;;;;;2.67;1.47;;;;;;;13.30;100.00;94407.34;5134536;27;20202;-62
2022/04/27 00:35:47;;;;;;;2.07;1.87;;;;;;;13.15;100.00;94408.88;5134250;27;20683;-61
2022/04/27 00:38:13;;;;;;;4.00;1.40;;;;;;;13.16;100.00;94408.72;5133908;27;20207;-59
2022/04/27 00:40:38;;;;;;;2.37;1.80;;;;;;;13.27;100.00;94417.88;5134327;27;20666;-61
2022/04/27 00:43:04;;;;;;;1.93;1.60;;;;;;;12.92;100.00;94416.19;5134464;27;20584;-61
2022/04/27 00:45:29;;;;;;;1.87;1.70;;;;;;;12.96;100.00;94419.25;5134066;27;20243;-59
2022/04/27 00:47:55;;;;;;;5.73;2.23;;;;;;;13.11;100.00;94418.56;5134385;27;20194;-60
2022/04/27 00:50:21;;;;;;;2.03;1.70;;;;;;;12.98;100.00;94418.16;5133934;27;20674;-61
2022/04/27 00:52:47;;;;;;;2.60;1.73;;;;;;;12.93;100.00;94414.47;5134308;27;20199;-59
2022/04/27 00:55:12;;;;;;;4.97;1.47;;;;;;;12.96;100.00;94425.16;5133744;27;20185;-60
2022/04/27 00:57:39;;;;;;;1.47;1.33;;;;;;;13.13;100.00;94421.78;5134140;27;20199;-61
2022/04/27 01:00:07;;;;;;;1.73;1.33;;;;;;;12.90;100.00;94422.41;5115302;27;20206;-61
2022/04/27 01:02:34;;;;;;;3.37;1.50;;;;;;;12.59;100.00;94424.56;5134189;27;20214;-61
2022/04/27 01:05:00;;;;;;;4.17;1.40;;;;;;;12.47;100.00;94425.72;5133498;27;20175;-61
2022/04/27 01:07:28;;;;;;;1.57;1.43;;;;;;;12.60;100.00;94424.41;5133809;27;20282;-60
2022/04/27 01:09:55;;;;;;;1.90;1.37;;;;;;;12.59;100.00;94417.72;5134230;27;20183;-59
2022/04/27 01:12:20;;;;;;;1.60;1.50;;;;;;;12.74;100.00;94417.19;5133896;27;20210;-61
2022/04/27 01:14:50;;;;;;;2.70;1.50;;;;;;;12.75;100.00;94421.31;5133765;27;20179;-60
2022/04/27 01:17:16;;;;;;;4.50;1.80;;;;;;;12.93;100.00;94414.47;5133636;27;20637;-61
2022/04/27 01:19:42;;;;;;;1.87;1.70;;;;;;;12.87;100.00;94417.56;5133498;27;20174;-62
2022/04/27 01:22:07;;;;;;;4.80;1.60;;;;;;;12.91;100.00;94419.69;5133261;27;20199;-58
2022/04/27 01:24:33;;;;;;;1.70;1.60;;;;;;;12.96;100.00;94412.41;5133540;27;20214;-59
2022/04/27 01:26:59;;;;;;;4.40;1.83;;;;;;;12.82;100.00;94412.94;5133180;27;20207;-60
2022/04/27 01:29:25;;;;;;;1.80;1.60;;;;;;;12.86;100.00;94414.25;5133387;27;20174;-61
2022/04/27 01:31:52;;;;;;;2.37;1.57;;;;;;;13.03;100.00;94415.94;5133263;27;20202;-60
2022/04/27 01:34:17;;;;;;;2.57;1.53;;;;;;;12.75;100.00;94408.56;5133330;27;20175;-60
2022/04/27 01:36:43;;;;;;;4.60;1.80;;;;;;;12.97;100.00;94415.75;5114798;27;20201;-60
2022/04/27 01:39:15;;;;;;;1.80;1.70;;;;;;;12.74;100.00;94412.88;5133152;27;20253;-60
2022/04/27 01:41:41;;;;;;;2.93;1.63;;;;;;;12.68;100.00;94410.13;5133086;27;20207;-60
2022/04/27 01:44:06;;;;;;;2.07;1.87;;;;;;;12.75;100.00;94413.66;5133111;27;20205;-59
2022/04/27 01:46:32;;;;;;;2.37;1.87;;;;;;;12.71;100.00;94404.72;5132994;27;20191;-61
2022/04/27 01:48:57;;;;;;;1.63;1.53;;;;;;;12.86;100.00;94414.25;5133086;27;20183;-60
2022/04/27 01:54:15;;;;;;;4.37;2.00;;;;;;;12.96;100.00;94419.25;5133366;28;20173;-60
2022/04/27 01:56:44;;;;;;;1.93;1.70;;;;;;;12.92;100.00;94415.41;5133114;27;20192;-61
2022/04/27 01:59:12;;;;;;;2.67;2.03;;;;;;;12.84;100.00;94408.50;5147900;22;20225;-60
2022/04/27 02:01:38;;;;;;;1.73;1.63;;;;;;;12.81;100.00;94405.41;5135124;27;20194;-61
2022/04/27 02:04:03;;;;;;;3.30;1.77;;;;;;;12.61;100.00;94399.72;5153839;27;20220;-61
2022/04/27 02:06:29;;;;;;;3.17;1.87;;;;;;;12.55;100.00;94397.75;5153484;27;20611;-59
2022/04/27 02:08:55;;;;;;;2.70;2.10;;;;;;;12.48;100.00;94400.09;5153520;27;20182;-59
2022/04/27 02:11:24;;;;;;;2.53;1.60;;;;;;;12.44;100.00;94395.44;5122639;22;20224;-61
2022/04/27 02:13:54;;;;;;;3.13;2.00;;;;;;;12.45;100.00;94399.59;5073706;28;20176;-60
2022/04/27 02:16:23;;;;;;;1.90;1.70;;;;;;;12.53;100.00;94404.75;5092291;28;20180;-61
2022/04/27 02:18:48;;;;;;;3.90;1.90;;;;;;;12.56;100.00;94402.69;5091792;28;20169;-61
2022/04/27 02:21:15;;;;;;;2.40;2.03;;;;;;;12.64;100.00;94401.97;5092234;28;20182;-61
2022/04/27 02:23:41;;;;;;;2.20;1.60;;;;;;;12.73;100.00;94398.53;5118907;22;20297;-61
2022/04/27 02:26:07;;;;;;;2.50;1.63;;;;;;;12.66;100.00;94403.41;5132432;28;20257;-60
2022/04/27 02:28:32;;;;;;;3.90;1.50;;;;;;;12.64;100.00;94395.09;5132902;28;20286;-60
2022/04/27 02:30:58;;;;;;;3.90;1.90;;;;;;;12.62;100.00;94401.31;5132671;28;20175;-61
2022/04/27 02:33:23;;;;;;;1.90;1.63;;;;;;;12.62;100.00;94402.09;5114350;28;20215;-60
2022/04/27 02:35:49;;;;;;;2.70;1.43;;;;;;;12.73;100.00;94405.38;5138607;22;20229;-60
2022/04/27 02:38:15;;;;;;;2.07;1.80;;;;;;;12.73;100.00;94410.47;5132514;28;20201;-59
2022/04/27 02:40:40;;;;;;;1.87;1.70;;;;;;;12.50;100.00;94413.47;5132988;28;20630;-62
2022/04/27 02:43:05;;;;;;;3.87;2.10;;;;;;;12.45;100.00;94404.69;5132442;28;20211;-60
2022/04/27 02:45:31;;;;;;;6.00;1.80;;;;;;;12.46;100.00;94407.06;5132935;28;20183;-59
2022/04/27 02:47:56;;;;;;;2.93;1.90;;;;;;;12.52;100.00;94408.25;5132370;28;20591;-60
2022/04/27 02:53:06;;;;;;;2.47;1.57;;;;;;;12.70;100.00;94411.59;5132732;28;20209;-60
2022/04/27 02:55:31;;;;;;;4.13;1.77;;;;;;;12.72;100.00;94417.34;5132713;28;20191;-59
2022/04/27 02:57:57;;;;;;;2.70;1.90;;;;;;;12.74;100.00;94406.97;5132429;28;20220;-59
2022/04/27 03:00:22;;;;;;;5.17;1.90;;;;;;;12.64;100.00;94407.84;5133996;27;20642;-61
2022/04/27 03:02:48;;;;;;;3.30;1.77;;;;;;;12.55;100.00;94410.50;5136053;27;20211;-62
2022/04/27 03:05:13;;;;;;;3.03;1.73;;;;;;;12.42;100.00;94400.66;5117731;27;20183;-59
2022/04/27 03:07:38;;;;;;;3.03;2.13;;;;;;;12.48;100.00;94409.50;5135942;27;20203;-59
2022/04/27 03:10:05;;;;;;;2.90;2.27;;;;;;;12.42;100.00;94405.00;5135831;27;20187;-62
2022/04/27 03:12:30;;;;;;;2.27;2.07;;;;;;;12.44;100.00;94403.88;5132021;22;20227;-59
2022/04/27 03:14:55;;;;;;;3.03;2.00;;;;;;;12.44;100.00;94406.44;5115193;28;20224;-59
2022/04/27 03:17:21;;;;;;;5.97;2.00;;;;;;;12.46;100.00;94412.19;5115612;28;20203;-60
2022/04/27 03:19:47;;;;;;;3.77;2.20;;;;;;;12.48;100.00;94417.16;5115608;28;20268;-64
2022/04/27 03:22:12;;;;;;;5.87;2.27;;;;;;;12.54;100.00;94422.44;5115483;28;20593;-61
2022/04/27 03:24:38;;;;;;;7.00;2.80;;;;;;;12.58;100.00;94425.53;5115062;28;20174;-61
2022/04/27 03:27:05;;;;;;;3.27;2.90;;;;;;;12.55;100.00;94426.59;5096669;28;20212;-61
2022/04/27 03:29:30;;;;;;;5.00;2.63;;;;;;;12.61;100.00;94427.75;5096513;28;20182;-61
2022/04/27 03:31:56;;;;;;;5.13;2.80;;;;;;;12.66;100.00;94436.56;5114850;28;20298;-61
2022/04/27 03:34:21;;;;;;;4.20;2.93;;;;;;;12.68;100.00;94434.66;5115079;28;20271;-63
2022/04/27 03:36:47;;;;;;;2.83;2.57;;;;;;;12.71;100.00;94438.69;5114874;28;20211;-61
2022/04/27 03:39:13;;;;;;;4.35;2.70;;;;;;;12.74;100.00;94443.50;5115022;28;20190;-62
2022/04/27 03:41:38;;;;;;;7.07;3.30;;;;;;;12.68;100.00;94444.88;5114801;28;20367;-58
2022/04/27 03:44:04;;;;;;;4.97;3.53;;;;;;;12.71;100.00;94456.53;5114424;28;20295;-60
2022/04/27 03:46:29;;;;;;;5.33;4.63;;;;;;;12.56;100.00;94455.47;5114811;28;20211;-60
2022/04/27 03:48:54;;;;;;;7.10;4.30;;;;;;;12.95;100.00;94436.31;5114681;28;20215;-59
2022/04/27 03:51:20;;;;;;;8.43;3.47;;;;;;;13.37;100.00;94447.44;5114504;28;20562;-62
2022/04/27 03:53:45;;;;;;;8.30;5.60;;;;;;;13.95;100.00;94455.19;5114436;28;20555;-62
2022/04/27 03:56:11;;;;;;;9.17;5.00;;;;;;;13.73;100.00;94481.31;5114512;28;20195;-63
2022/04/27 03:58:36;;;;;;;10.32;4.95;;;;;;;13.67;100.00;94492.13;5114577;28;20168;-62
2022/04/27 04:01:02;;;;;;;7.03;4.90;;;;;;;13.45;100.00;94477.34;5114471;28;20187;-62
2022/04/27 04:03:27;;;;;;;18.50;8.20;;;;;;;13.28;100.00;94480.72;5114242;28;20238;-61
2022/04/27 04:05:53;;;;;;;9.98;7.20;;;;;;;13.16;100.00;94479.38;5096150;28;20183;-62
2022/04/27 04:08:18;;;;;;;11.35;6.78;;;;;;;13.10;100.00;94482.53;5114107;28;20336;-66
2022/04/27 04:10:45;;;;;;;10.63;5.70;;;;;;;13.02;100.00;94480.69;5114527;28;20176;-67
2022/04/27 04:13:11;;;;;;;9.00;6.68;;;;;;;12.72;100.00;94463.25;5095854;28;20307;-66
2022/04/27 04:15:37;;;;;;;9.20;5.47;;;;;;;12.71;100.00;94471.84;5095723;28;20655;-62
2022/04/27 04:18:04;;;;;;;8.93;4.40;;;;;;;12.66;100.00;94481.69;5095853;28;20278;-65
2022/04/27 04:20:30;;;;;;;9.63;4.38;;;;;;;12.66;100.00;94481.69;5113759;28;20400;-66
2022/04/27 04:22:56;;;;;;;13.00;5.33;;;;;;;12.72;100.00;94488.75;5114427;28;20211;-62
2022/04/27 04:30:50;;;;;;;8.87;4.50;;;;;;;12.08;100.00;94478.72;5114052;28;20198;-66
2022/04/27 04:33:15;;;;;;;6.73;4.90;;;;;;;11.95;100.00;94472.38;5095367;28;20227;-63
2022/04/27 04:35:41;;;;;;;11.33;4.90;;;;;;;11.71;100.00;94478.81;5113764;28;20175;-63
2022/04/27 04:38:06;;;;;;;13.60;5.63;;;;;;;11.58;100.00;94483.38;5113662;28;20222;-60
2022/04/27 04:40:32;;;;;;;13.50;5.87;;;;;;;11.59;100.00;94482.44;5095773;28;20243;-61
2022/04/27 04:42:58;;;;;;;9.73;5.43;;;;;;;11.72;100.00;94493.13;5113458;28;20789;-61
2022/04/27 04:45:23;;;;;;;8.40;4.60;;;;;;;11.92;100.00;94495.59;5113734;28;20702;-66
2022/04/27 04:47:50;;;;;;;10.50;4.67;;;;;;;12.08;100.00;94500.88;5095165;28;20207;-61
2022/04/27 04:50:16;;;;;;;11.43;5.30;;;;;;;12.04;100.00;94504.66;5113177;28;20180;-61
2022/04/27 04:52:41;;;;;;;12.67;5.37;;;;;;;12.18;100.00;94501.63;5113559;28;20695;-62
2022/04/27 04:55:07;;;;;;;8.97;4.50;;;;;;;12.31;100.00;94507.16;5113169;28;20174;-59
2022/04/27 04:57:33;;;;;;;9.37;3.87;;;;;;;12.46;100.00;94503.19;5113611;28;20210;-66
2022/04/27 04:59:58;;;;;;;6.63;4.23;;;;;;;12.56;100.00;94514.13;5113160;28;20176;-60
2022/04/27 05:02:24;;;;;;;7.85;4.35;;;;;;;12.72;100.00;94516.81;5113354;28;20212;-67
2022/04/27 05:04:51;;;;;;;6.03;4.90;;;;;;;12.92;100.00;94509.78;5113039;28;20172;-67
2022/04/27 05:07:18;;;;;;;9.97;4.60;;;;;;;12.90;100.00;94515.06;5113543;28;20234;-66
2022/04/27 05:09:46;;;;;;;6.83;4.60;;;;;;;13.07;100.00;94516.03;5113354;28;20180;-62
2022/04/27 05:12:12;;;;;;;9.17;4.70;;;;;;;12.87;100.00;94510.22;5112981;28;20672;-61
2022/04/27 05:14:37;;;;;;;9.03;5.50;;;;;;;12.65;100.00;94510.69;5112968;28;20171;-60
2022/04/27 05:17:03;;;;;;;7.63;5.13;;;;;;;12.66;100.00;94509.75;5112911;28;20207;-63
2022/04/27 05:19:29;;;;;;;16.20;8.20;;;;;;;12.49;100.00;94507.97;5095170;28;20179;-66
2022/04/27 05:21:55;;;;;;;12.63;7.00;;;;;;;12.57;100.00;94513.97;5113228;28;20204;-62
2022/04/27 05:24:21;;;;;;;18.37;6.47;;;;;;;12.62;100.00;94514.31;5112294;28;20203;-61
2022/04/27 05:26:46;;;;;;;15.40;6.70;;;;;;;12.49;100.00;94508.78;5113051;28;20208;-66
2022/04/27 05:31:58;;;;;;;11.73;5.30;;;;;;;12.82;100.00;94515.00;5113086;28;20724;-62
2022/04/27 05:34:33;;;;;;;10.37;5.80;;;;;;;12.75;100.00;94513.97;5112603;28;20195;-61
2022/04/27 05:36:58;;;;;;;12.67;6.53;;;;;;;12.91;100.00;94509.00;5113135;28;20652;-64
2022/04/27 05:39:24;;;;;;;11.73;5.68;;;;;;;13.33;100.00;94520.19;5112722;28;20186;-65
2022/04/27 05:41:51;;;;;;;10.80;6.30;;;;;;;13.42;100.00;94510.81;5112845;28;20203;-64
2022/04/27 05:44:22;;;;;;;11.63;5.67;;;;;;;13.58;100.00;94518.56;5094434;28;20202;-63
2022/04/27 05:46:51;;;;;;;16.73;6.00;;;;;;;13.75;100.00;94524.59;5112968;28;20211;-63
2022/04/27 05:49:18;;;;;;;14.38;5.25;;;;;;;13.86;100.00;94542.19;5112489;28;20180;-67
2022/04/27 05:51:43;;;;;;;12.20;6.17;;;;;;;13.81;100.00;94524.78;5112806;28;20207;-63
2022/04/27 05:54:09;;;;;;;14.50;5.70;;;;;;;13.71;100.00;94529.19;5112491;28;20652;-62
2022/04/27 05:56:35;;;;;;;11.13;5.70;;;;;;;13.64;100.00;94501.84;5119607;22;20253;-60
2022/04/27 05:59:01;;;;;;;13.33;5.77;;;;;;;13.57;100.00;94511.88;5112495;28;20160;-61
2022/04/27 06:01:27;;;;;;;16.40;6.32;;;;;;;13.68;100.00;94513.34;5112681;28;20180;-64
2022/04/27 06:03:53;;;;;;;10.98;5.57;;;;;;;13.91;100.00;94530.56;5112267;28;20295;-66
2022/04/27 06:06:20;;;;;;;13.02;5.20;;;;;;;13.86;100.00;94516.63;5112334;28;20190;-66
2022/04/27 06:08:45;;;;;;;8.07;5.70;;;;;;;13.88;100.00;94519.84;5094100;28;20202;-64
2022/04/27 06:11:11;;;;;;;10.87;5.73;;;;;;;13.61;100.00;94525.94;5112381;28;20207;-63
2022/04/27 06:13:36;;;;;;;12.05;6.50;;;;;;;13.73;100.00;94521.38;5094010;28;20175;-60
2022/04/27 06:16:01;;;;;;;15.52;6.80;;;;;;;13.94;100.00;94535.38;5112545;28;20194;-64
2022/04/27 06:18:27;;;;;;;23.17;11.53;;;;;;;13.75;100.00;94517.72;5093815;28;20199;-60
2022/04/27 06:20:53;;;;;;;10.90;5.43;;;;;;;14.62;100.00;94519.97;5112304;28;20180;-64
2022/04/27 06:23:19;;;;;;;12.15;7.20;;;;;;;15.31;100.00;94522.06;5112056;28;20203;-61
2022/04/27 06:25:48;;;;;;;11.95;5.78;;;;;;;16.09;100.00;94525.59;5112105;28;20180;-61
2022/04/27 06:28:13;;;;;;;8.82;4.10;;;;;;;16.89;100.00;94547.53;5111946;28;20211;-60
2022/04/27 06:30:40;;;;;;;7.85;4.20;;;;;;;17.55;100.00;94552.81;5112119;28;20645;-61
2022/04/27 06:33:05;;;;;;;6.93;3.65;;;;;;;18.03;100.00;94566.97;5112125;28;20282;-63
2022/04/27 06:35:32;;;;;;;7.00;3.65;;;;;;;18.49;100.00;94616.50;5095597;28;20203;-63
2022/04/27 06:37:58;;;;;;;8.75;3.42;;;;;;;18.87;100.00;94628.25;5115887;28;20195;-62
2022/04/27 06:40:24;;;;;;;8.18;3.25;;;;;;;18.92;98.24;94649.94;5137490;22;20225;-63
2022/04/27 06:42:51;;;;;;;3.78;2.65;;;;;;;19.11;99.79;94622.78;5136230;27;20249;-61
2022/04/27 06:45:17;;;;;;;4.82;2.75;;;;;;;19.37;95.10;94674.66;5136936;27;20186;-63
2022/04/27 06:47:42;;;;;;;4.18;3.00;;;;;;;19.52;91.69;94690.88;5136353;27;20271;-63
2022/04/27 06:50:11;;;;;;;5.90;3.05;;;;;;;19.67;91.97;94662.47;5136561;27;20624;-63
2022/04/27 06:52:46;;;;;;;4.13;3.72;;;;;;;19.75;89.04;94717.31;5136442;27;20302;-63
2022/04/27 06:55:12;;;;;;;7.03;2.80;;;;;;;19.62;93.49;94615.75;5136419;27;20198;-61
2022/04/27 06:57:38;;;;;;;11.40;3.95;;;;;;;19.82;90.01;94684.63;5136078;27;20197;-63
2022/04/27 07:00:04;;;;;;;6.68;3.47;;;;;;;19.70;89.03;94686.09;5117749;27;20187;-63
2022/04/27 07:02:30;;;;;;;10.35;2.75;;;;;;;19.81;91.47;94641.75;5136137;27;20702;-60
2022/04/27 07:05:00;;;;;;;5.20;3.20;;;;;;;20.06;89.41;94673.91;5135890;27;20214;-63
2022/04/27 07:07:26;;;;;;;8.65;4.18;;;;;;;20.01;86.36;94706.41;5136313;27;20202;-62
2022/04/27 07:09:52;;;;;;;7.03;3.78;;;;;;;19.27;87.81;94668.94;5136147;27;20282;-63
2022/04/27 07:12:18;;;;;;;9.15;4.00;;;;;;;18.55;89.78;94636.38;5136076;27;20587;-62
2022/04/27 07:14:43;;;;;;;7.68;4.18;;;;;;;18.29;92.42;94596.44;5136524;27;20211;-66
2022/04/27 07:17:09;;;;;;;7.85;4.38;;;;;;;18.21;94.42;94568.22;5136187;27;20198;-62
2022/04/27 07:19:34;;;;;;;7.47;4.25;;;;;;;18.06;95.44;94556.34;5135958;27;20179;-61
2022/04/27 07:21:59;;;;;;;8.07;4.20;;;;;;;17.62;99.08;94512.56;5135474;27;20230;-63
2022/04/27 07:24:25;;;;;;;12.60;4.40;;;;;;;17.42;100.00;94509.69;5135451;27;20218;-62
2022/04/27 07:26:51;;;;;;;7.35;4.53;;;;;;;17.53;99.84;94534.97;5135546;27;20593;-62
2022/04/27 07:29:16;;;;;;;8.40;4.85;;;;;;;17.42;100.00;94524.28;5135766;27;20182;-64
2022/04/27 07:31:42;;;;;;;7.80;5.15;;;;;;;17.34;98.98;94542.34;5135331;27;20201;-63
2022/04/27 07:34:07;;;;;;;6.90;4.53;;;;;;;17.21;100.00;94521.59;5135631;27;20190;-61
2022/04/27 07:36:32;;;;;;;9.13;5.10;;;;;;;17.08;100.00;94526.50;5135249;27;20183;-61
2022/04/27 07:38:58;;;;;;;7.82;4.50;;;;;;;16.80;100.00;94497.97;5135084;27;20183;-62
2022/04/27 07:41:24;;;;;;;11.75;5.28;;;;;;;16.87;100.00;94508.38;5135305;27;20224;-61
2022/04/27 07:43:49;;;;;;;11.65;4.93;;;;;;;16.95;100.00;94526.28;5135124;27;20234;-63
2022/04/27 07:46:14;;;;;;;12.30;4.57;;;;;;;17.02;100.00;94528.00;5134942;27;20668;-61
2022/04/27 07:48:40;;;;;;;8.65;4.28;;;;;;;17.15;100.00;94517.94;5135328;27;20265;-63
2022/04/27 07:51:06;;;;;;;13.07;4.82;;;;;;;17.10;100.00;94520.22;5134958;27;20171;-63
2022/04/27 07:53:32;;;;;;;14.45;4.60;;;;;;;16.99;100.00;94515.50;5135023;27;20199;-62
2022/04/27 07:55:58;;;;;;;7.45;4.35;;;;;;;17.08;100.00;94519.59;5135271;27;20235;-62
2022/04/27 07:58:24;;;;;;;9.85;4.85;;;;;;;17.30;100.00;94530.81;5134994;27;20186;-62
2022/04/27 08:00:50;;;;;;;8.30;3.55;;;;;;;17.42;100.00;94537.94;5116707;27;20218;-61
2022/04/27 08:03:16;;;;;;;9.60;4.55;;;;;;;17.35;100.00;94555.03;5134704;27;20206;-63
2022/04/27 08:05:41;;;;;;;5.00;4.50;;;;;;;17.20;100.00;94550.81;5135405;27;20185;-63
2022/04/27 08:08:08;;;;;;;5.13;4.00;;;;;;;17.13;100.00;94519.09;5134792;27;20205;-65
2022/04/27 08:10:34;;;;;;;14.20;5.50;;;;;;;17.40;100.00;94505.69;5116306;27;20209;-62
2022/04/27 08:13:00;;;;;;;10.15;4.40;;;;;;;17.13;100.00;94522.44;5128241;22;20689;-63
2022/04/27 08:15:26;;;;;;;11.15;4.65;;;;;;;17.06;100.00;94500.19;5114032;28;20167;-63
2022/04/27 08:18:06;;;;;;;10.73;4.03;;;;;;;17.24;100.00;94527.19;5114356;28;20286;-65
2022/04/27 08:23:23;;;;;;;8.35;3.90;;;;;;;17.29;100.00;94521.53;5114187;28;20225;-63
2022/04/27 08:25:50;;;;;;;8.27;4.38;;;;;;;17.58;100.00;94485.59;5113974;28;20610;-64
2022/04/27 08:28:16;;;;;;;8.93;5.22;;;;;;;17.83;100.00;94517.03;5113757;28;20225;-63
2022/04/27 08:30:44;;;;;;;7.25;4.68;;;;;;;18.05;100.00;94516.94;5095425;28;20168;-63
2022/04/27 08:33:10;;;;;;;10.43;4.53;;;;;;;17.98;100.00;94541.75;5113674;28;20195;-61
2022/04/27 08:35:36;;;;;;;10.32;5.50;;;;;;;18.23;100.00;94527.66;5113401;28;20172;-63
2022/04/27 08:38:03;;;;;;;17.75;5.30;;;;;;;18.39;100.00;94514.59;5113378;28;20261;-63
2022/04/27 08:40:29;;;;;;;19.52;5.35;;;;;;;18.19;99.61;94549.56;5113213;28;20172;-62
2022/04/27 08:42:56;;;;;;;11.80;5.55;;;;;;;18.10;98.87;94555.00;5113209;28;20264;-62
2022/04/27 08:45:22;;;;;;;18.50;5.25;;;;;;;18.38;98.57;94550.81;5113494;28;20218;-61
2022/04/27 08:47:50;;;;;;;9.73;4.00;;;;;;;18.59;100.00;94512.25;5113734;28;20211;-62
2022/04/27 08:50:21;;;;;;;9.73;4.82;;;;;;;18.68;99.88;94534.34;5113316;28;20633;-60
2022/04/27 08:52:48;;;;;;;9.32;4.60;;;;;;;18.74;97.10;94574.84;5114012;28;20238;-63
2022/04/27 08:55:14;;;;;;;11.27;5.25;;;;;;;18.80;94.31;94602.44;5113216;28;20172;-64
2022/04/27 08:57:41;;;;;;;14.70;5.18;;;;;;;18.84;96.26;94562.47;5094421;28;20203;-62
2022/04/27 09:00:09;;;;;;;11.93;5.45;;;;;;;19.11;94.17;94592.66;5094760;28;20622;-61
2022/04/27 09:02:35;;;;;;;13.48;5.65;;;;;;;19.36;93.89;94595.72;5113078;28;20222;-61
2022/04/27 09:05:12;;;;;;;11.57;5.13;;;;;;;19.68;92.69;94613.25;5113016;28;20176;-61
2022/04/27 09:07:58;;;;;;;10.65;5.10;;;;;;;19.79;89.94;94646.31;5112990;28;20263;-60
2022/04/27 09:10:25;;;;;;;9.02;4.38;;;;;;;19.58;88.71;94648.06;5111894;28;20183;-61
2022/04/27 09:12:57;;;;;;;7.78;4.75;;;;;;;19.79;89.67;94615.34;5112733;28;20203;-62
2022/04/27 09:15:25;;;;;;;12.38;4.65;;;;;;;20.02;87.67;94646.06;5112561;28;20259;-61
2022/04/27 09:20:46;;;;;;;7.57;4.72;;;;;;;20.41;83.99;94607.63;5133331;27;20250;-61
2022/04/27 09:23:41;;;;;;;8.65;4.28;;;;;;;20.52;76.07;94696.72;5133157;27;20279;-61
2022/04/27 09:26:22;;;;;;;8.30;4.85;;;;;;;20.62;77.69;94640.34;5132725;27;20179;-62
2022/04/27 09:28:49;;;;;;;7.85;5.47;;;;;;;20.84;74.43;94696.09;5122165;22;20318;-62
2022/04/27 09:31:44;;;;;;;9.10;4.72;;;;;;;20.97;71.62;94722.00;5112185;28;20172;-61
2022/04/27 09:34:28;;;;;;;12.50;5.22;;;;;;;21.03;76.49;94625.59;5090400;28;20254;-61
2022/04/27 09:37:04;;;;;;;9.95;4.88;;;;;;;21.42;76.06;94643.03;5111870;28;20745;-62
2022/04/27 09:39:30;;;;;;;8.38;4.13;;;;;;;21.45;66.77;94759.06;5112270;28;20163;-61
2022/04/27 09:42:06;;;;;;;6.43;3.17;;;;;;;21.46;70.41;94680.44;5111941;28;20218;-61
2022/04/27 09:44:34;;;;;;;6.90;4.03;;;;;;;21.53;71.72;94647.63;5111877;28;20256;-61
2022/04/27 09:47:03;;;;;;;6.72;4.40;;;;;;;21.84;68.85;94698.84;5111993;28;20231;-62
2022/04/27 09:49:34;;;;;;;4.25;3.53;;;;;;;22.16;70.05;94656.66;5112120;28;20182;-61
2022/04/27 09:52:01;;;;;;;5.57;3.38;;;;;;;22.44;65.79;94722.00;5111999;28;20685;-61
2022/04/27 09:54:28;;;;;;;3.75;3.08;;;;;;;22.58;64.97;94718.44;5111835;28;20214;-60
2022/04/27 09:56:56;;;;;;;6.57;4.20;;;;;;;22.73;65.57;94706.03;5112063;28;20556;-62
2022/04/27 09:59:32;;;;;;;6.53;3.60;;;;;;;22.75;63.27;94724.78;5111680;28;20179;-62
2022/04/27 10:01:59;;;;;;;11.18;3.45;;;;;;;23.00;61.29;94749.06;5111682;28;20679;-62
2022/04/27 10:04:28;;;;;;;7.00;3.60;;;;;;;23.50;58.74;94767.47;5111675;28;20644;-62
2022/04/27 10:07:00;;;;;;;8.75;3.75;;;;;;;23.64;56.93;94748.25;5111731;28;20211;-61
2022/04/27 10:09:28;;;;;;;6.45;3.88;;;;;;;23.55;56.48;94759.91;5113467;28;20170;-62
2022/04/27 10:11:55;;;;;;;6.20;2.97;;;;;;;23.70;54.48;94787.19;5115756;28;20219;-62
2022/04/27 10:14:22;;;;;;;7.32;3.63;;;;;;;23.70;53.88;94784.56;5115717;28;20271;-63
2022/04/27 10:16:48;;;;;;;7.22;3.55;;;;;;;23.26;54.99;94755.97;5115888;28;20339;-61
2022/04/27 10:19:15;;;;;;;6.68;2.80;;;;;;;23.46;53.45;94768.91;5115631;28;20179;-62
2022/04/27 10:21:57;;;;;;;6.47;3.30;;;;;;;23.79;53.96;94748.78;5097582;28;20278;-64
2022/04/27 10:24:37;;;;;;;6.40;3.45;;;;;;;23.51;54.00;94746.53;5097004;28;20204;-61
2022/04/27 10:27:34;;;;;;;4.80;3.00;;;;;;;24.03;53.55;94743.69;5115669;28;20203;-62
2022/04/27 10:30:03;;;;;;;9.20;3.45;;;;;;;24.14;52.95;94757.78;5115860;28;20240;-61
2022/04/27 10:32:40;;;;;;;5.53;3.00;;;;;;;24.26;50.28;94802.88;5124525;22;20204;-62
2022/04/27 10:35:12;;;;;;;3.33;2.95;;;;;;;24.77;50.35;94795.72;5135838;27;20223;-61
2022/04/27 10:37:44;;;;;;;4.03;2.65;;;;;;;25.01;49.95;94793.34;5136494;27;20214;-62
2022/04/27 10:40:48;;;;;;;4.78;2.50;;;;;;;25.04;47.33;94822.31;5135865;27;20179;-62
2022/04/27 10:43:40;;;;;;;6.28;3.05;;;;;;;25.28;47.81;94799.84;5052772;28;20280;-62
2022/04/27 10:46:36;;;;;;;3.95;3.20;;;;;;;25.35;48.43;94771.97;5052837;28;20174;-62
2022/04/27 10:49:19;;;;;;;4.65;2.85;;;;;;;25.61;50.12;94704.72;5123509;27;20195;-61
2022/04/27 10:52:04;;;;;;;6.03;2.70;;;;;;;25.99;48.34;94755.75;5136006;27;20202;-62
2022/04/27 10:54:38;;;;;;;5.55;3.83;;;;;;;26.11;46.55;94798.31;5117436;27;20265;-61
2022/04/27 10:57:19;;;;;;;6.07;3.88;;;;;;;26.09;45.15;94822.00;5135980;27;20203;-61
2022/04/27 10:59:51;;;;;;;6.70;3.03;;;;;;;25.33;46.79;94747.94;5135641;27;20206;-61
2022/04/27 11:02:44;;;;;;;5.20;2.92;;;;;;;25.64;45.52;94748.59;5135688;27;20699;-60
2022/04/27 11:05:12;;;;;;;4.30;2.78;;;;;;;26.28;46.50;94729.66;5135625;27;20697;-62
2022/04/27 11:07:50;;;;;;;4.15;2.92;;;;;;;26.63;47.29;94698.41;5135615;27;20203;-62
2022/04/27 11:10:21;;;;;;;9.90;3.40;;;;;;;26.97;48.82;94649.81;5135792;27;20243;-62
2022/04/27 11:12:55;;;;;;;5.90;2.97;;;;;;;27.10;45.63;94735.72;5135806;27;20203;-62
2022/04/27 11:15:26;;;;;;;4.55;2.40;;;;;;;26.54;43.81;94744.13;5135658;27;20175;-63
2022/04/27 11:18:03;;;;;;;4.90;2.38;;;;;;;27.17;43.09;94718.13;5124306;22;20230;-62
2022/04/27 11:20:36;;;;;;;6.22;2.72;;;;;;;27.23;42.91;94714.59;5113902;28;20247;-61
2022/04/27 11:23:07;;;;;;;5.85;2.60;;;;;;;27.16;41.38;94713.94;5114532;28;20302;-62
2022/04/27 11:25:42;;;;;;;3.53;2.17;;;;;;;26.73;41.24;94700.47;5096228;28;20717;-61
2022/04/27 11:28:09;;;;;;;5.90;2.60;;;;;;;26.95;44.14;94629.19;5114496;28;20226;-62
2022/04/27 11:30:35;;;;;;;3.25;1.80;;;;;;;27.15;42.59;94660.13;5114764;28;20267;-63
2022/04/27 11:33:01;;;;;;;4.93;1.90;;;;;;;26.90;40.78;94685.72;5096534;28;20264;-62
2022/04/27 11:35:42;;;;;;;4.65;2.30;;;;;;;26.98;41.43;94661.88;5114690;28;20236;-62
2022/04/27 11:38:08;;;;;;;4.10;2.20;;;;;;;27.05;40.91;94659.94;5114576;28;20203;-62
2022/04/27 11:40:38;;;;;;;6.88;2.20;;;;;;;27.45;41.79;94632.00;5114121;28;20179;-61
2022/04/27 11:43:05;;;;;;;4.45;1.77;;;;;;;27.55;39.93;94671.38;5114294;28;20290;-61
2022/04/27 11:45:31;;;;;;;5.97;1.80;;;;;;;27.77;40.21;94655.81;5114569;28;20180;-62
2022/04/27 11:47:58;;;;;;;4.32;1.90;;;;;;;27.82;39.99;94646.22;5114433;28;20202;-63
2022/04/27 11:50:24;;;;;;;7.03;2.17;;;;;;;27.95;40.38;94624.22;5114515;28;20175;-62